Monday, May 30, 2016, 2:16 PM EDT
Back to Local

KLEB, Lebanon Municipal Airport

Location: Lebanon, NH, United States Lat: 43.633
Local Time: 2:16 PM EDT (18:16 GMT) Lon: -72.3
Time Zone: US/Eastern Elev: 597 ft

Show me the last for .
Show Coded

Time T Td Feel RH Dir Speed Gust Alt SLP Vis Weather Sky Remarks
2016-05-30 13:53 81 64 83 56 180° 12 - 29.87 29.84 10 CLR 6-hr Precip Total (2pm): 0.01"
6-hr Min Temp (2pm): 60.1°F
6-hr Max Temp (2pm): 81.0°F
2016-05-30 12:53 79 62 81 56 220° 9 - 29.89 29.86 10 CLR None
2016-05-30 11:53 75 63 78 66 190° 9 - 29.91 29.89 10 CLR None
2016-05-30 11:01 71 62 76 73 240° 6 - 29.95 - 10 FEW008 None
2016-05-30 10:53 70 63 - 78 Variable 5 - 29.95 29.93 10 BKN008 6-hr Precip Total (11am): 0.01"
2016-05-30 09:53 65 60 - 84 210° 6 - 29.97 29.95 5 BR OVC005 None
2016-05-30 09:36 64 60 - 86 200° 5 - 29.97 - 5 BR OVC005 None
2016-05-30 08:53 62 58 - 86 50° 3 - 29.98 29.96 3 BR OVC003 1-hr Precip Total: 0.01"
2016-05-30 08:12 61 58 - 89 50° 5 - 29.98 - 7 OVC001 1-hr Precip Total: Trace
2016-05-30 07:53 61 58 - 89 - Calm - 29.98 29.96 3 -RA BR OVC002 1-hr Precip Total: Trace
6-hr Precip Total (8am): 0.05"
24-hr Precip Total (8am): 0.06"
6-hr Min Temp (8am): 57.9°F
6-hr Max Temp (8am): 61.0°F
2016-05-30 06:53 59 57 - 93 50° 3 - 29.99 29.97 3 BR OVC003 1-hr Precip Total: Trace
2016-05-30 06:19 59 56 - 89 60° 6 - 30.00 - 4 BR OVC004 1-hr Precip Total: Trace
2016-05-30 05:53 58 56 - 93 50° 7 - 30.00 29.98 7 -RA OVC006 1-hr Precip Total: 0.02"
2016-05-30 04:53 59 56 - 89 50° 3 - 30.00 29.98 7 -RA OVC008 1-hr Precip Total: 0.02"
6-hr Precip Total (5am): 0.03"
2016-05-30 03:53 60 57 - 89 - Calm - 30.02 30.00 9 -RA OVC008 1-hr Precip Total: 0.01"
2016-05-30 03:28 60 56 - 86 60° 5 - 30.02 - 9 -RA OVC009 1-hr Precip Total: Trace
2016-05-30 02:53 60 56 - 86 50° 5 - 30.03 30.00 9 OVC011 None
2016-05-30 01:53 60 56 - 86 50° 6 - 30.03 30.01 9 OVC010 6-hr Precip Total (2am): 0.01"
6-hr Min Temp (2am): 60.1°F
6-hr Max Temp (2am): 64.9°F
2016-05-30 01:06 61 57 - 86 - Calm - 30.05 - 8 OVC009 None
2016-05-30 00:53 61 58 - 89 - Calm - 30.05 30.03 8 OVC010 24-hr Min Temp (1am): 61.0°F
24-hr Max Temp (1am): 78.1°F
2016-05-29 23:53 62 58 - 86 - Calm - 30.08 30.06 8 OVC011 None
2016-05-29 22:53 62 58 - 86 60° 3 - 30.09 30.07 9 OVC012 6-hr Precip Total (11pm): 0.01"
2016-05-29 21:53 62 58 - 86 120° 5 - 30.11 30.09 8 OVC014 1-hr Precip Total: 0.01"
2016-05-29 21:17 63 57 - 80 120° 3 - 30.13 - 8 -RA OVC014 1-hr Precip Total: Trace
2016-05-29 20:53 63 57 - 80 130° 3 - 30.12 30.09 10 OVC016 1-hr Precip Total: Trace
2016-05-29 19:53 65 58 - 78 90° 5 - 30.12 30.09 10 -RA OVC016 1-hr Precip Total: Trace
6-hr Precip Total (8pm): 0.00"
6-hr Min Temp (8pm): 64.9°F
6-hr Max Temp (8pm): 78.1°F
2016-05-29 18:53 67 58 - 72 160° 6 - 30.11 30.09 10 OVC019 None
2016-05-29 17:53 68 59 - 72 Variable 5 - 30.10 30.08 10 OVC023 None
2016-05-29 16:53 70 60 - 70 140° 9 - 30.11 30.09 10 OVC026 None
2016-05-29 15:53 75 62 78 64 90° 8 - 30.10 30.08 10 OVC028 None
2016-05-29 14:53 78 63 80 59 Variable 3 - 30.12 30.09 10 OVC024 None

Support USWX by starting your Amazon purchase here.